createdAt,value
2018-11-25T00:00:19.271Z,8.70
2018-11-25T00:02:48.580Z,9.43
2018-11-25T00:05:17.043Z,9.50
2018-11-25T00:07:45.708Z,9.03
2018-11-25T00:10:14.174Z,9.30
2018-11-25T00:12:42.678Z,10.60
2018-11-25T00:15:12.117Z,9.20
2018-11-25T00:17:40.616Z,10.47
2018-11-25T00:20:11.407Z,10.63
2018-11-25T00:22:40.506Z,10.47
2018-11-25T00:25:10.293Z,9.70
2018-11-25T00:27:38.776Z,9.43
2018-11-25T00:30:14.487Z,8.47
2018-11-25T00:32:43.119Z,9.10
2018-11-25T00:35:12.832Z,9.50
2018-11-25T00:37:47.975Z,9.30
2018-11-25T00:40:11.482Z,8.53
2018-11-25T00:42:40.776Z,8.83
2018-11-25T00:45:11.085Z,11.87
2018-11-25T00:47:39.543Z,8.73
2018-11-25T00:50:09.896Z,9.90
2018-11-25T00:52:38.467Z,8.03
2018-11-25T00:55:15.403Z,11.17
2018-11-25T00:57:43.921Z,9.33
2018-11-25T01:00:13.630Z,8.83
2018-11-25T01:02:42.090Z,9.10
2018-11-25T01:05:11.256Z,8.83
2018-11-25T01:07:40.348Z,9.37
2018-11-25T01:10:11.202Z,7.40
2018-11-25T01:12:39.792Z,9.47
2018-11-25T01:15:14.337Z,9.90
2018-11-25T01:17:43.315Z,8.60
2018-11-25T01:20:16.117Z,7.40
2018-11-25T01:22:44.680Z,7.30
2018-11-25T01:25:13.250Z,7.57
2018-11-25T01:27:41.665Z,7.50
2018-11-25T01:30:15.047Z,9.00
2018-11-25T01:32:43.482Z,10.73
2018-11-25T01:35:12.558Z,10.27
2018-11-25T01:37:41.299Z,10.70
2018-11-25T01:40:11.874Z,9.00
2018-11-25T01:42:40.416Z,7.90
2018-11-25T01:45:10.639Z,10.80
2018-11-25T01:47:39.170Z,11.17
2018-11-25T01:50:10.174Z,11.53
2018-11-25T01:52:38.878Z,10.20
2018-11-25T01:55:09.366Z,9.37
2018-11-25T01:57:37.792Z,10.03
2018-11-25T02:00:20.935Z,9.70
2018-11-25T02:02:49.610Z,9.93
2018-11-25T02:05:18.364Z,11.60
2018-11-25T02:07:47.208Z,10.63
2018-11-25T02:10:17.615Z,10.37
2018-11-25T02:12:46.146Z,9.70
2018-11-25T02:15:15.683Z,11.37
2018-11-25T02:17:44.242Z,8.90
2018-11-25T02:20:21.594Z,10.77
2018-11-25T02:22:50.663Z,9.57
2018-11-25T02:25:19.130Z,9.70
2018-11-25T02:27:47.879Z,10.23
2018-11-25T02:30:17.897Z,8.97
2018-11-25T02:32:46.871Z,10.17
2018-11-25T02:35:16.179Z,12.23
2018-11-25T02:37:44.761Z,9.70
2018-11-25T02:40:14.793Z,8.07
2018-11-25T02:42:43.238Z,9.30
2018-11-25T02:45:13.766Z,8.37
2018-11-25T02:47:42.167Z,9.10
2018-11-25T02:50:31.662Z,9.60
2018-11-25T02:53:05.667Z,9.60
2018-11-25T02:55:34.314Z,10.87
2018-11-25T02:58:02.726Z,10.63
2018-11-25T03:00:31.488Z,10.03
2018-11-25T03:03:00.515Z,10.07
2018-11-25T03:05:29.042Z,11.40
2018-11-25T03:07:57.512Z,9.80
2018-11-25T03:10:26.102Z,11.60
2018-11-25T03:12:55.154Z,12.23
2018-11-25T03:15:23.705Z,12.30
2018-11-25T03:17:52.295Z,11.00
2018-11-25T03:20:20.732Z,12.33
2018-11-25T03:22:49.165Z,11.70
2018-11-25T03:25:20.800Z,10.93
2018-11-25T03:27:49.410Z,12.27
2018-11-25T03:30:19.101Z,11.90
2018-11-25T03:32:48.573Z,11.80
2018-11-25T03:35:17.010Z,11.27
2018-11-25T03:37:45.555Z,10.80
2018-11-25T03:40:15.117Z,13.10
2018-11-25T03:42:43.673Z,11.10
2018-11-25T03:45:14.023Z,11.17
2018-11-25T03:47:42.690Z,10.20
2018-11-25T03:50:12.495Z,10.60
2018-11-25T03:52:40.941Z,10.83
2018-11-25T03:55:11.243Z,16.30
2018-11-25T03:57:39.776Z,13.30
2018-11-25T04:00:17.103Z,14.60
2018-11-25T04:02:45.583Z,14.10
2018-11-25T04:05:15.862Z,18.00
2018-11-25T04:07:44.518Z,16.83
2018-11-25T04:10:15.010Z,12.70
2018-11-25T04:12:43.672Z,9.20
2018-11-25T04:15:17.390Z,10.23
2018-11-25T04:17:46.300Z,11.17
2018-11-25T04:20:18.322Z,8.33
2018-11-25T04:22:46.912Z,10.10
2018-11-25T04:25:15.838Z,9.50
2018-11-25T04:27:44.407Z,8.03
2018-11-25T04:30:14.034Z,9.97
2018-11-25T04:32:42.691Z,15.10
2018-11-25T04:35:12.084Z,15.80
2018-11-25T04:37:40.613Z,13.60
2018-11-25T04:40:10.184Z,12.20
2018-11-25T04:42:38.713Z,12.87
2018-11-25T04:45:09.710Z,10.93
2018-11-25T04:47:39.391Z,8.97
2018-11-25T04:50:12.620Z,9.90
2018-11-25T04:52:41.286Z,9.30
2018-11-25T04:55:09.951Z,10.87
2018-11-25T04:57:38.510Z,8.97
2018-11-25T05:00:11.649Z,13.00
2018-11-25T05:02:40.919Z,9.70
2018-11-25T05:05:11.056Z,9.18
2018-11-25T05:07:40.321Z,7.13
2018-11-25T05:10:11.983Z,8.17
2018-11-25T05:12:40.448Z,10.30
2018-11-25T05:15:12.374Z,5.97
2018-11-25T05:17:40.904Z,7.40
2018-11-25T05:20:10.474Z,15.00
2018-11-25T05:22:39.194Z,16.87
2018-11-25T05:25:15.314Z,11.50
2018-11-25T05:27:44.528Z,14.87
2018-11-25T05:30:14.216Z,11.60
2018-11-25T05:32:42.777Z,9.47
2018-11-25T05:35:19.118Z,8.70
2018-11-25T05:37:48.019Z,7.97
2018-11-25T05:40:17.092Z,12.23
2018-11-25T05:42:45.790Z,10.93
2018-11-25T05:45:16.130Z,11.13
2018-11-25T05:47:45.091Z,8.43
2018-11-25T05:50:14.848Z,7.80
2018-11-25T05:52:43.353Z,10.17
2018-11-25T05:55:12.505Z,10.10
2018-11-25T05:57:42.027Z,6.10
2018-11-25T06:00:18.872Z,13.53
2018-11-25T06:02:47.351Z,8.13
2018-11-25T06:05:16.073Z,7.57
2018-11-25T06:07:44.509Z,6.40
2018-11-25T06:10:13.785Z,10.70
2018-11-25T06:12:42.528Z,9.70
2018-11-25T06:15:14.709Z,8.30
2018-11-25T06:17:43.265Z,11.33
2018-11-25T06:20:14.557Z,10.27
2018-11-25T06:22:43.292Z,10.80
2018-11-25T06:25:19.789Z,11.33
2018-11-25T06:27:48.425Z,8.33
2018-11-25T06:30:18.354Z,9.30
2018-11-25T06:32:48.797Z,11.30
2018-11-25T06:35:18.277Z,12.33
2018-11-25T06:37:46.752Z,7.63
2018-11-25T06:40:17.298Z,10.70
2018-11-25T06:42:45.856Z,9.90
2018-11-25T06:45:19.760Z,10.20
2018-11-25T06:47:48.697Z,9.63
2018-11-25T06:50:17.189Z,7.67
2018-11-25T06:52:45.750Z,12.03
2018-11-25T06:55:14.260Z,11.83
2018-11-25T06:57:42.778Z,10.20
2018-11-25T07:00:14.894Z,14.57
2018-11-25T07:02:43.332Z,9.37
2018-11-25T07:05:11.585Z,6.90
2018-11-25T07:07:40.754Z,7.00
2018-11-25T07:10:11.389Z,8.10
2018-11-25T07:12:39.871Z,7.03
2018-11-25T07:15:13.753Z,9.80
2018-11-25T07:17:42.292Z,8.83
2018-11-25T07:20:12.023Z,7.77
2018-11-25T07:22:40.638Z,13.03
2018-11-25T07:25:14.628Z,7.63
2018-11-25T07:27:43.397Z,7.20
2018-11-25T07:30:17.363Z,8.53
2018-11-25T07:32:46.152Z,8.50
2018-11-25T07:35:14.593Z,10.30
2018-11-25T07:37:43.031Z,7.83
2018-11-25T07:40:12.881Z,9.40
2018-11-25T07:42:41.327Z,8.90
2018-11-25T07:45:11.754Z,8.17
2018-11-25T07:47:40.267Z,11.97
2018-11-25T07:50:10.792Z,19.30
2018-11-25T07:52:39.786Z,9.30
2018-11-25T07:55:39.612Z,11.13
2018-11-25T07:58:08.051Z,10.87
2018-11-25T08:00:36.544Z,12.17
2018-11-25T08:03:05.276Z,11.70
2018-11-25T08:05:33.836Z,10.40
2018-11-25T08:08:02.306Z,10.80
2018-11-25T08:10:30.929Z,7.10
2018-11-25T08:12:59.404Z,9.37
2018-11-25T08:15:27.932Z,12.53
2018-11-25T08:17:56.437Z,10.10
2018-11-25T08:20:24.925Z,10.73
2018-11-25T08:22:53.842Z,9.90
2018-11-25T08:25:23.014Z,9.83
2018-11-25T08:27:51.928Z,10.97
2018-11-25T08:30:23.501Z,9.70
2018-11-25T08:32:53.269Z,8.00
2018-11-25T08:35:21.864Z,7.97
2018-11-25T08:37:50.343Z,9.33
2018-11-25T08:40:22.982Z,10.40
2018-11-25T08:42:51.754Z,8.60
2018-11-25T08:45:20.285Z,9.00
2018-11-25T08:47:49.081Z,9.00
2018-11-25T08:50:18.984Z,7.40
2018-11-25T08:52:48.720Z,7.93
2018-11-25T08:55:18.127Z,8.53
2018-11-25T08:57:46.591Z,6.83
2018-11-25T09:00:16.284Z,8.93
2018-11-25T09:02:44.932Z,8.63
2018-11-25T09:05:15.079Z,7.07
2018-11-25T09:07:44.290Z,10.60
2018-11-25T09:10:15.630Z,19.47
2018-11-25T09:12:44.660Z,41.00
2018-11-25T09:15:15.308Z,32.73
2018-11-25T09:17:44.069Z,37.17
2018-11-25T09:20:17.424Z,36.77
2018-11-25T09:22:46.033Z,27.53
2018-11-25T09:25:16.783Z,15.63
2018-11-25T09:27:45.408Z,11.23
2018-11-25T09:30:19.247Z,20.03
2018-11-25T09:32:47.752Z,8.70
2018-11-25T09:35:16.675Z,10.70
2018-11-25T09:37:45.196Z,9.40
2018-11-25T09:40:16.543Z,12.50
2018-11-25T09:42:45.026Z,10.80
2018-11-25T09:45:15.599Z,10.57
2018-11-25T09:47:44.560Z,11.57
2018-11-25T09:50:16.539Z,11.10
2018-11-25T09:52:45.082Z,9.03
2018-11-25T09:55:15.711Z,9.57
2018-11-25T09:57:48.222Z,10.10
2018-11-25T10:00:27.294Z,10.30
2018-11-25T10:02:56.437Z,11.20
2018-11-25T10:05:24.963Z,10.87
2018-11-25T10:07:53.445Z,9.83
2018-11-25T10:10:22.997Z,8.60
2018-11-25T10:12:51.687Z,10.30
2018-11-25T10:15:21.343Z,9.40
2018-11-25T10:17:49.870Z,9.47
2018-11-25T10:20:21.569Z,10.53
2018-11-25T10:22:50.097Z,9.60
2018-11-25T10:25:18.877Z,13.07
2018-11-25T10:27:47.515Z,11.33
2018-11-25T10:30:28.436Z,10.73
2018-11-25T10:32:58.414Z,10.77
2018-11-25T10:35:26.870Z,10.17
2018-11-25T10:37:56.253Z,12.03
2018-11-25T10:40:25.281Z,10.03
2018-11-25T10:42:54.672Z,10.10
2018-11-25T10:45:24.772Z,9.90
2018-11-25T10:47:53.383Z,9.97
2018-11-25T10:50:22.649Z,10.23
2018-11-25T10:52:51.373Z,11.67
2018-11-25T10:55:20.832Z,10.03
2018-11-25T10:57:50.422Z,8.40
2018-11-25T11:00:33.066Z,9.13
2018-11-25T11:03:07.095Z,9.17
2018-11-25T11:05:41.097Z,10.63
2018-11-25T11:08:10.266Z,9.90
2018-11-25T11:10:38.973Z,8.20
2018-11-25T11:13:08.427Z,8.63
2018-11-25T11:15:37.322Z,9.40
2018-11-25T11:18:06.511Z,11.03
2018-11-25T11:20:35.278Z,21.80
2018-11-25T11:23:04.254Z,16.20
2018-11-25T11:25:33.051Z,22.43
2018-11-25T11:28:01.858Z,18.17
2018-11-25T11:30:30.351Z,32.20
2018-11-25T11:32:58.868Z,12.93
2018-11-25T11:35:28.041Z,10.70
2018-11-25T11:37:56.525Z,10.00
2018-11-25T11:40:25.030Z,9.60
2018-11-25T11:42:54.024Z,9.67
2018-11-25T11:45:23.070Z,15.10
2018-11-25T11:47:51.612Z,8.83
2018-11-25T11:50:21.569Z,12.90
2018-11-25T11:52:50.082Z,9.30
2018-11-25T11:55:18.800Z,10.93
2018-11-25T11:57:48.048Z,9.37
2018-11-25T12:00:18.342Z,8.83
2018-11-25T12:02:47.078Z,10.53
2018-11-25T12:05:15.733Z,10.30
2018-11-25T12:07:44.496Z,10.60
2018-11-25T12:10:14.939Z,10.40
2018-11-25T12:12:43.913Z,12.20
2018-11-25T12:15:17.787Z,9.90
2018-11-25T12:17:46.624Z,9.63
2018-11-25T12:20:15.163Z,10.73
2018-11-25T12:22:43.811Z,10.80
2018-11-25T12:25:13.873Z,11.90
2018-11-25T12:27:42.334Z,11.70
2018-11-25T12:30:12.207Z,13.60
2018-11-25T12:32:41.323Z,13.77
2018-11-25T12:35:10.897Z,43.33
2018-11-25T12:37:39.415Z,14.87
2018-11-25T12:40:10.444Z,12.73
2018-11-25T12:42:39.324Z,14.40
2018-11-25T12:45:10.507Z,11.03
2018-11-25T12:47:39.328Z,13.10
2018-11-25T12:50:10.444Z,11.43
2018-11-25T12:52:39.266Z,11.97
2018-11-25T12:55:10.690Z,9.70
2018-11-25T12:57:40.110Z,10.00
2018-11-25T13:00:14.840Z,10.40
2018-11-25T13:02:43.928Z,10.67
2018-11-25T13:05:13.230Z,9.87
2018-11-25T13:07:43.348Z,10.63
2018-11-25T13:10:12.030Z,10.77
2018-11-25T13:12:40.742Z,12.30
2018-11-25T13:15:10.258Z,14.80
2018-11-25T13:17:39.029Z,13.97
2018-11-25T13:20:10.384Z,11.03
2018-11-25T13:22:39.385Z,10.53
2018-11-25T13:25:10.420Z,11.53
2018-11-25T13:27:39.231Z,10.70
2018-11-25T13:30:13.516Z,11.27
2018-11-25T13:32:42.317Z,11.03
2018-11-25T13:35:11.015Z,11.37
2018-11-25T13:37:39.622Z,13.23
2018-11-25T13:40:10.900Z,12.47
2018-11-25T13:42:39.833Z,14.00
2018-11-25T13:45:07.620Z,10.30
2018-11-25T13:47:36.257Z,11.60
2018-11-25T13:50:06.466Z,11.80
2018-11-25T13:52:36.120Z,11.70
2018-11-25T13:55:06.477Z,10.50
2018-11-25T13:57:35.372Z,11.10
2018-11-25T14:00:04.776Z,10.80
2018-11-25T14:02:33.540Z,9.87
2018-11-25T14:05:02.245Z,10.10
2018-11-25T14:07:32.486Z,10.03
2018-11-25T14:10:01.014Z,11.03
2018-11-25T14:12:29.835Z,12.40
2018-11-25T14:14:58.334Z,12.80
2018-11-25T14:17:26.797Z,12.20
2018-11-25T14:19:55.766Z,11.67
2018-11-25T14:22:24.627Z,12.60
2018-11-25T14:24:53.417Z,12.63
2018-11-25T14:27:22.502Z,11.83
2018-11-25T14:29:51.608Z,12.10
2018-11-25T14:32:20.699Z,11.37
2018-11-25T14:34:50.247Z,11.27
2018-11-25T14:37:18.826Z,12.70
2018-11-25T14:39:47.725Z,13.67
2018-11-25T14:42:18.002Z,12.33
2018-11-25T14:44:47.412Z,13.53
2018-11-25T14:47:15.929Z,11.90
2018-11-25T14:49:44.554Z,12.70
2018-11-25T14:52:14.027Z,12.60
2018-11-25T14:54:42.635Z,12.67
2018-11-25T14:57:11.452Z,13.27
2018-11-25T14:59:40.195Z,14.00
2018-11-25T15:02:08.958Z,14.00
2018-11-25T15:04:37.528Z,13.60
2018-11-25T15:07:06.735Z,13.53
2018-11-25T15:09:36.166Z,14.53
2018-11-25T15:12:05.348Z,14.97
2018-11-25T15:14:34.028Z,14.20
2018-11-25T15:17:03.236Z,11.60
2018-11-25T15:19:32.057Z,10.80
2018-11-25T15:22:02.423Z,11.80
2018-11-25T15:24:31.204Z,12.87
2018-11-25T15:27:00.575Z,11.80
2018-11-25T15:29:29.666Z,12.10
2018-11-25T15:31:58.938Z,14.77
2018-11-25T15:34:27.956Z,11.90
2018-11-25T15:36:56.849Z,12.73
2018-11-25T15:39:25.501Z,11.10
2018-11-25T15:41:54.116Z,13.97
2018-11-25T15:44:23.796Z,12.70
2018-11-25T15:46:52.517Z,13.07
2018-11-25T15:49:21.688Z,12.47
2018-11-25T15:51:50.738Z,13.03
2018-11-25T15:54:19.225Z,12.50
2018-11-25T15:56:48.623Z,13.77
2018-11-25T15:59:17.309Z,10.37
2018-11-25T16:01:46.120Z,12.50
2018-11-25T16:04:15.927Z,14.80
2018-11-25T16:06:46.420Z,15.27
2018-11-25T16:09:15.157Z,16.17
2018-11-25T16:11:43.963Z,17.10
2018-11-25T16:14:12.906Z,16.53
2018-11-25T16:16:41.680Z,15.33
2018-11-25T16:19:10.378Z,16.87
2018-11-25T16:21:39.254Z,17.73
2018-11-25T16:24:07.870Z,16.00
2018-11-25T16:26:38.158Z,14.37
2018-11-25T16:29:10.486Z,15.07
2018-11-25T16:31:38.958Z,16.20
2018-11-25T16:34:07.473Z,14.47
2018-11-25T16:36:36.015Z,14.90
2018-11-25T16:39:06.557Z,15.97
2018-11-25T16:41:35.069Z,16.37
2018-11-25T16:44:03.596Z,16.40
2018-11-25T16:46:32.556Z,16.50
2018-11-25T16:49:01.065Z,15.97
2018-11-25T16:51:29.652Z,12.60
2018-11-25T16:53:58.652Z,11.73
2018-11-25T16:56:27.628Z,16.30
2018-11-25T16:58:56.445Z,10.70
2018-11-25T17:01:25.707Z,10.73
2018-11-25T17:03:54.429Z,10.27
2018-11-25T17:06:23.040Z,11.20
2018-11-25T17:08:51.710Z,10.47
2018-11-25T17:11:20.591Z,10.30
2018-11-25T17:13:50.275Z,11.30
2018-11-25T17:16:18.786Z,10.23
2018-11-25T17:18:47.583Z,10.80
2018-11-25T17:21:16.432Z,9.53
2018-11-25T17:23:45.216Z,10.50
2018-11-25T17:26:14.572Z,10.10
2018-11-25T17:28:43.357Z,10.00
2018-11-25T17:31:12.720Z,10.03
2018-11-25T17:33:42.163Z,10.73
2018-11-25T17:36:11.099Z,10.30
2018-11-25T17:38:40.663Z,9.40
2018-11-25T17:41:10.327Z,10.30
2018-11-25T17:43:39.471Z,12.60
2018-11-25T17:46:09.185Z,13.13
2018-11-25T17:48:38.565Z,12.73
2018-11-25T17:51:07.570Z,12.20
2018-11-25T17:53:36.400Z,12.07
2018-11-25T17:56:05.282Z,14.07
2018-11-25T17:58:33.947Z,14.57
2018-11-25T18:01:06.891Z,13.17
2018-11-25T18:03:37.223Z,14.67
2018-11-25T18:06:06.129Z,14.33
2018-11-25T18:08:35.994Z,14.67
2018-11-25T18:11:05.691Z,15.30
2018-11-25T18:13:37.565Z,14.70
2018-11-25T18:16:09.096Z,16.47
2018-11-25T18:18:41.302Z,14.37
2018-11-25T18:21:12.870Z,14.80
2018-11-25T18:23:42.979Z,15.83
2018-11-25T18:26:12.117Z,14.90
2018-11-25T18:28:41.195Z,15.57
2018-11-25T18:31:11.035Z,16.43
2018-11-25T18:33:40.317Z,14.33
2018-11-25T18:36:11.292Z,14.57
2018-11-25T18:38:41.609Z,12.80
2018-11-25T18:41:10.767Z,14.90
2018-11-25T18:43:41.415Z,14.27
2018-11-25T18:46:10.556Z,15.10
2018-11-25T18:48:42.532Z,14.83
2018-11-25T18:51:11.800Z,15.27
2018-11-25T18:53:40.879Z,14.70
2018-11-25T18:56:10.518Z,18.80
2018-11-25T18:58:39.333Z,15.53
2018-11-25T19:01:12.621Z,14.23
2018-11-25T19:03:41.494Z,15.80
2018-11-25T19:06:10.399Z,16.43
2018-11-25T19:08:39.259Z,14.57
2018-11-25T19:11:09.276Z,17.60
2018-11-25T19:13:38.469Z,16.23
2018-11-25T19:16:08.603Z,15.00
2018-11-25T19:18:38.101Z,14.37
2018-11-25T19:21:07.477Z,15.67
2018-11-25T19:23:36.469Z,17.67
2018-11-25T19:26:08.553Z,15.60
2018-11-25T19:28:37.663Z,13.87
2018-11-25T19:31:06.892Z,14.97
2018-11-25T19:33:35.977Z,13.27
2018-11-25T19:36:07.180Z,16.33
2018-11-25T19:38:36.481Z,15.73
2018-11-25T19:41:07.718Z,17.10
2018-11-25T19:43:37.631Z,15.70
2018-11-25T19:46:07.683Z,14.70
2018-11-25T19:48:36.801Z,15.63
2018-11-25T19:51:06.905Z,14.87
2018-11-25T19:53:35.739Z,19.20
2018-11-25T19:56:04.877Z,16.73
2018-11-25T19:58:33.759Z,16.00
2018-11-25T20:01:03.071Z,17.00
2018-11-25T20:03:32.440Z,16.50
2018-11-25T20:06:01.639Z,16.20
2018-11-25T20:08:31.139Z,15.53
2018-11-25T20:11:00.447Z,17.80
2018-11-25T20:13:29.744Z,14.73
2018-11-25T20:16:05.892Z,16.53
2018-11-25T20:18:35.136Z,14.53
2018-11-25T20:21:09.598Z,14.63
2018-11-25T20:23:38.695Z,17.27
2018-11-25T20:26:08.098Z,15.40
2018-11-25T20:28:36.851Z,16.30
2018-11-25T20:31:06.214Z,15.50
2018-11-25T20:33:52.378Z,17.60
2018-11-25T20:36:17.935Z,15.47
2018-11-25T20:38:52.779Z,15.40
2018-11-25T20:41:21.809Z,14.60
2018-11-25T20:43:51.164Z,14.93
2018-11-25T20:46:27.646Z,15.73
2018-11-25T20:48:57.278Z,14.40
2018-11-25T20:51:31.933Z,13.53
2018-11-25T20:54:01.475Z,13.57
2018-11-25T20:56:31.023Z,15.50
2018-11-25T20:58:59.683Z,13.73
2018-11-25T21:01:28.481Z,13.50
2018-11-25T21:03:57.021Z,14.33
2018-11-25T21:06:26.315Z,12.73
2018-11-25T21:08:54.960Z,12.90
2018-11-25T21:11:24.140Z,12.70
2018-11-25T21:13:52.877Z,12.30
2018-11-25T21:16:22.235Z,13.97
2018-11-25T21:18:50.994Z,11.70
2018-11-25T21:21:20.265Z,11.70
2018-11-25T21:23:48.855Z,10.63
2018-11-25T21:26:17.608Z,11.03
2018-11-25T21:28:46.237Z,12.07
2018-11-25T21:31:14.840Z,11.30
2018-11-25T21:33:43.298Z,12.70
2018-11-25T21:36:11.854Z,11.50
2018-11-25T21:38:40.388Z,10.43
2018-11-25T21:41:08.911Z,11.00
2018-11-25T21:43:37.788Z,10.60
2018-11-25T21:46:06.374Z,10.47
2018-11-25T21:48:34.845Z,10.73
2018-11-25T21:51:03.607Z,10.63
2018-11-25T21:53:32.129Z,11.20
2018-11-25T21:56:00.817Z,10.33
2018-11-25T21:58:29.457Z,9.60
2018-11-25T22:00:58.649Z,9.87
2018-11-25T22:03:27.787Z,9.67
2018-11-25T22:05:57.203Z,9.97
2018-11-25T22:08:25.767Z,10.70
2018-11-25T22:10:54.243Z,10.00
2018-11-25T22:13:22.902Z,10.43
2018-11-25T22:15:51.395Z,9.97
2018-11-25T22:18:19.878Z,9.67
2018-11-25T22:20:48.804Z,10.10
2018-11-25T22:23:17.339Z,9.90
2018-11-25T22:25:45.877Z,11.40
2018-11-25T22:28:14.506Z,9.17
2018-11-25T22:30:42.975Z,10.00
2018-11-25T22:33:11.962Z,9.37
2018-11-25T22:35:40.447Z,11.00
2018-11-25T22:38:08.921Z,9.33
2018-11-25T22:40:37.777Z,8.80
2018-11-25T22:43:06.408Z,10.10
2018-11-25T22:45:34.932Z,11.33
2018-11-25T22:48:03.526Z,9.27
2018-11-25T22:50:32.091Z,8.83
2018-11-25T22:53:00.552Z,8.77
2018-11-25T22:55:29.023Z,8.00
2018-11-25T22:57:57.624Z,8.30
2018-11-25T23:00:32.091Z,7.40
2018-11-25T23:03:01.561Z,9.00
2018-11-25T23:06:40.352Z,9.00
2018-11-25T23:09:08.891Z,9.00
2018-11-25T23:11:37.317Z,8.00
2018-11-25T23:14:05.989Z,8.43
2018-11-25T23:16:35.333Z,7.80
2018-11-25T23:19:03.803Z,7.80
2018-11-25T23:21:32.572Z,7.97
2018-11-25T23:24:01.171Z,9.00
2018-11-25T23:26:29.639Z,9.17
2018-11-25T23:28:58.057Z,8.60
2018-11-25T23:31:26.531Z,7.37
2018-11-25T23:33:55.010Z,6.93
2018-11-25T23:36:23.458Z,8.07
2018-11-25T23:38:51.939Z,8.40
2018-11-25T23:41:20.390Z,8.23
2018-11-25T23:43:48.837Z,8.80
2018-11-25T23:46:17.954Z,7.30
2018-11-25T23:48:46.659Z,9.30
2018-11-25T23:51:15.206Z,8.67
2018-11-25T23:53:43.825Z,8.17
2018-11-25T23:56:12.538Z,8.27
2018-11-25T23:58:41.064Z,8.47
